Weather observations for the past three days for
Chatham, Chatham Municipal Airport
Imperial (Metric)
Date Time (edt) Wind (mph) Vis. (mi.) Weather Sky Cond. Temperature (ºF) Relative Humidity Wind Chill (°F) Heat Index (°F) Pressure Precipitation (in)
Air Dwpt 6 hour altimeter (in) sea level (mb) 1 hr 3 hr 6 hr
Max. Min.
07 17:52 SW 8 G 16 10.00 Fair CLR 55.9 46.9 72% 29.71 1006.1
07 16:52 SW 9 G 16 10.00 Fair CLR 55 48 77% 29.71 1006.0
07 15:52 Vrbl 7 G 20 10.00 Fair CLR 57 48.9 74% 29.7 1005.9
07 14:52 SW 7 G 18 10.00 Fair CLR 57 46.9 69% 29.73 1006.7
07 13:52 Vrbl 7 10.00 Fair CLR 59 42.1 59 46.9 54% 29.74 1007.2 0.02
07 12:52 Vrbl 7 10.00 Fair CLR 57 44.1 62% 29.75 1007.5
07 11:52 NW 8 10.00 A Few Clouds FEW100 54 45 72% 29.76 1007.9
07 10:52 Vrbl 6 10.00 Overcast BKN090 OVC100 51.1 46 83% 29.77 1008.1 0.01 0.02
07 09:52 Vrbl 3 10.00 Overcast FEW012 OVC070 48 45 89% 29.76 1008.0
07 08:52 Vrbl 5 10.00 Light Rain OVC060 46.9 45 93% 45 29.77 1008.1 0.01
07 07:52 Vrbl 5 6.00 Rain Fog/Mist FEW027 BKN048 OVC070 48 46 54 48 93% 47 29.78 1008.4 0.04 0.21
07 06:52 Vrbl 5 10.00 Overcast BKN020 OVC043 48.9 48 97% 48 29.74 1007.2 0.12
07 05:52 Calm 3.00 Rain Fog/Mist BKN006 BKN011 OVC039 52 51.1 97% 29.73 1006.7 0.05
07 04:52 Vrbl 7 0.75 Fog/Mist VV002 52 52 100% 29.72 1006.4
07 03:52 Vrbl 5 6.00 Fog/Mist OVC003 53.1 53.1 100% 29.7 1005.9
07 02:52 SW 8 1.25 Fog/Mist OVC002 54 54 100% 29.72 1006.4
07 01:52 SW 10 G 22 1.00 Fog/Mist VV002 54 54 57 54 100% 29.73 1006.9 0.13
07 00:52 SW 8 G 23 1.00 Fog/Mist VV002 54 54 100% 29.75 1007.6
06 23:52 SW 14 G 28 2.50 Fog/Mist OVC003 55 54 96% 29.76 1007.9
06 22:52 SW 13 G 25 6.00 Fog/Mist OVC004 55 55 100% 29.77 1008.0 0.13
06 21:52 SW 17 G 30 7.00 Overcast OVC006 55.9 55 97% 29.79 1008.8 0.01
06 20:52 SW 14 G 30 1.75 Heavy Rain Fog/Mist OVC004 55.9 55 97% 29.79 1008.9 0.12
06 19:52 S 13 G 31 4.00 Light Rain Fog/Mist BKN007 OVC013 55.9 55 63 55.9 97% 29.81 1009.4 0.1 0.1
06 18:52 S 13 G 28 10.00 Overcast BKN032 BKN042 OVC050 57.9 53.1 84% 29.81 1009.7
06 17:52 S 13 G 35 10.00 Overcast SCT036 SCT043 OVC110 57.9 53.1 84% 29.82 1009.9
06 16:52 S 13 G 31 10.00 A Few Clouds FEW030 59 53.1 81% 29.84 1010.4
06 15:52 S 15 G 33 10.00 Fair CLR 59 53.1 81% 29.85 1010.8
06 14:52 SW 14 G 35 10.00 Fair CLR 60.1 53.1 78% 29.87 1011.5
06 13:52 SW 14 G 31 10.00 Fair CLR 62.1 54 63 57 75% 29.89 1012.4
06 12:52 S 16 G 32 10.00 Fair CLR 61 54 78% 29.92 1013.2
06 11:52 SW 12 G 30 10.00 Fair CLR 63 54 73% 29.95 1014.1
06 10:52 S 15 G 32 10.00 Fair CLR 61 54 78% 29.93 1013.5
06 09:52 SW 13 G 29 10.00 Fair CLR 61 53.1 75% 29.94 1014.0
06 08:52 SW 13 G 26 10.00 A Few Clouds FEW021 59 53.1 81% 29.94 1013.9
06 07:52 SW 8 G 18 10.00 Overcast OVC014 57.9 53.1 57.9 55 84% 29.96 1014.6
06 06:52 SW 8 10.00 Overcast OVC015 55.9 53.1 90% 29.96 1014.5
06 05:52 SW 9 G 18 9.00 Overcast OVC017 55 52 90% 29.96 1014.6
06 04:52 SW 8 G 17 10.00 Overcast OVC015 55 52 90% 29.96 1014.6
06 03:52 SW 9 G 21 10.00 Overcast FEW012 OVC017 55 52 90% 29.95 1014.4
06 02:52 SW 12 G 20 10.00 Overcast BKN011 OVC026 55 52 90% 29.95 1014.4
06 01:52 SW 10 G 20 9.00 Overcast BKN011 OVC023 55 53.1 55.9 55 93% 29.96 1014.6
06 00:52 SW 13 G 25 10.00 Overcast SCT007 OVC020 55 53.1 93% 29.97 1014.8
05 23:52 SW 14 G 23 10.00 Mostly Cloudy FEW009 BKN020 55 52 90% 29.96 1014.6
05 22:52 SW 13 G 28 10.00 Fair CLR 55 52 90% 29.96 1014.5
05 21:52 SW 9 10.00 Fair CLR 55 51.1 87% 29.96 1014.7
05 20:52 SW 14 G 26 10.00 Fair CLR 55 51.1 87% 29.92 1013.4
05 19:52 SW 10 G 28 10.00 Fair CLR 55 48.9 59 55 80% 29.91 1012.8
05 18:52 SW 14 G 24 10.00 Fair CLR 55.9 50 81% 29.9 1012.5
05 17:52 SW 13 G 29 10.00 Fair CLR 57 51.1 81% 29.89 1012.1
05 16:52 SW 14 G 30 10.00 Fair CLR 57.9 51.1 78% 29.88 1012.0
05 15:52 SW 16 G 29 10.00 Fair CLR 59 51.1 75% 29.89 1012.3
05 14:52 SW 14 G 28 10.00 Fair CLR 59 51.1 75% 29.9 1012.6
05 13:52 SW 15 G 28 10.00 Fair CLR 59 51.1 59 54 75% 29.92 1013.2
05 12:52 SW 12 G 26 10.00 Fair CLR 57.9 51.1 78% 29.93 1013.5
05 11:52 SW 13 G 25 10.00 Fair CLR 59 51.1 75% 29.94 1013.9
05 10:52 SW 12 G 28 10.00 Fair CLR 57 51.1 81% 29.93 1013.6
05 09:52 SW 14 G 29 10.00 Fair CLR 57 50 78% 29.92 1013.3
05 08:52 SW 9 G 22 10.00 Fair CLR 55.9 50 81% 29.93 1013.5
05 07:52 S 12 G 17 10.00 Fair CLR 54 48.9 54 51.1 83% 29.93 1013.5
05 06:52 S 9 G 17 10.00 Fair CLR 52 48 86% 29.92 1013.3
05 05:52 S 9 10.00 Fair CLR 51.1 48 89% 29.91 1013.0
05 04:52 SW 7 10.00 Fair CLR 51.1 48 89% 29.91 1012.8
05 03:52 SW 7 10.00 Fair CLR 51.1 48 89% 29.91 1013.0
05 02:52 SW 8 10.00 Fair CLR 52 48 86% 29.91 1012.9
05 01:52 SW 9 G 22 10.00 Fair CLR 52 48 52 51.1 86% 29.91 1013.0
05 00:52 SW 10 G 20 10.00 Fair CLR 52 48 86% 29.91 1013.0
04 23:52 SW 9 G 21 10.00 Fair CLR 52 46.9 83% 29.93 1013.5
04 22:52 SW 10 G 23 10.00 Fair CLR 52 46 80% 29.93 1013.6
04 21:52 SW 9 G 25 10.00 Fair CLR 52 45 77% 29.92 1013.4
04 20:52 SW 10 G 23 10.00 Fair CLR 52 46 80% 29.9 1012.6
04 19:52 SW 9 G 25 10.00 Fair CLR 52 44.1 57.9 52 75% 29.88 1011.8
04 18:52 SW 13 G 26 10.00 Fair CLR 53.1 44.1 72% 29.86 1011.2
Date Time (edt) Wind (mph) Vis. (mi.) Weather Sky Cond. Air Dwpt Max. Min. Relative Humidity Wind Chill (°F) Heat Index (°F) altimeter (in) sea level (mb) 1 hr 3 hr 6 hr
6 hour
Temperature (ºF) Pressure Precipitation (in)